OMFJ METAR and TAF | Updated Today

OMFJ METAR

Fujairah International Airport

Observation time: 46 min. ago

OMFJ 061800Z 19002KT 7000 NSC 21/16 Q1016 A3000

Need help? Read our tutorial on how to read METARs or read the parsed version below.

Fujairah International Airport (OMFJ) METAR

  • Weather conditions on Mon, 06 Feb 2023 18:00:00 +0000 (46 min. ago):
  • Present conditions: Dry
  • Clouds: No significant clouds are observed
  • Visibility: 7000 meters
  • Wind: 190 degrees at 2 knots
  • Temperature: 21 celsius
  • Dew point: 16 celsius
  • Pressure: 1016 millibars
  • Remarks: None


Useful to know...

OMFJ TAF

Fujairah International Airport

TAF OMFJ 061700Z 0618/0800 29006KT 8000 NSC BECMG 0705/0707 09008KT BECMG 0714/0716 VRB03KT BECMG 0720/0722 29006KT
Observation time: 1:46 hr. ago
Need help? Read our tutorial on how to read TAFs or read the parsed version below.

Parsed version of TAF for Fujairah International Airport (OMFJ)

  • From 06 February at 18:00 UTC, to day 08 of the month at 00:00 UTC
  • Clouds: No significant clouds are observed
  • Visibility: 8000 meters
  • Wind: 290 degrees at 6
  • Expected to arise soon, from 07 February at 05:00 UTC, to day 07 of the month at 07:00 UTC
  • Wind: 90 degrees at 8
  • Expected to arise soon, from 07 February at 14:00 UTC, to day 07 of the month at 16:00 UTC
  • Wind: Variable at 3
  • Expected to arise soon, from 07 February at 20:00 UTC, to day 07 of the month at 22:00 UTC
  • Wind: 290 degrees at 6